sensor_id;sensor_type;location;lat;lon;timestamp;P1;durP1;ratioP1;P2;durP2;ratioP2
43311;SDS011;30041;48.300;16.352;2022-10-31T00:00:50;3.10;;;2.80;;
43311;SDS011;30041;48.300;16.352;2022-10-31T00:03:16;3.65;;;3.15;;
43311;SDS011;30041;48.300;16.352;2022-10-31T00:05:46;3.17;;;2.88;;
43311;SDS011;30041;48.300;16.352;2022-10-31T00:08:14;3.28;;;2.97;;
43311;SDS011;30041;48.300;16.352;2022-10-31T00:10:41;2.88;;;2.58;;
43311;SDS011;30041;48.300;16.352;2022-10-31T00:13:08;2.90;;;2.60;;
43311;SDS011;30041;48.300;16.352;2022-10-31T00:15:35;3.08;;;2.78;;
43311;SDS011;30041;48.300;16.352;2022-10-31T00:18:02;3.20;;;2.83;;
43311;SDS011;30041;48.300;16.352;2022-10-31T00:20:28;3.03;;;2.67;;
43311;SDS011;30041;48.300;16.352;2022-10-31T00:22:57;3.15;;;2.72;;
43311;SDS011;30041;48.300;16.352;2022-10-31T00:25:23;3.17;;;2.70;;
43311;SDS011;30041;48.300;16.352;2022-10-31T00:27:48;3.45;;;2.55;;
43311;SDS011;30041;48.300;16.352;2022-10-31T00:30:14;2.92;;;2.60;;
43311;SDS011;30041;48.300;16.352;2022-10-31T00:32:40;2.85;;;2.38;;
43311;SDS011;30041;48.300;16.352;2022-10-31T00:35:05;2.95;;;2.53;;
43311;SDS011;30041;48.300;16.352;2022-10-31T00:37:31;2.55;;;2.35;;
43311;SDS011;30041;48.300;16.352;2022-10-31T00:39:57;3.08;;;2.58;;
43311;SDS011;30041;48.300;16.352;2022-10-31T00:42:22;2.85;;;2.55;;
43311;SDS011;30041;48.300;16.352;2022-10-31T00:44:48;2.50;;;2.20;;
43311;SDS011;30041;48.300;16.352;2022-10-31T00:47:13;2.63;;;2.40;;
43311;SDS011;30041;48.300;16.352;2022-10-31T00:49:39;2.53;;;2.28;;
43311;SDS011;30041;48.300;16.352;2022-10-31T00:52:04;2.55;;;2.28;;
43311;SDS011;30041;48.300;16.352;2022-10-31T00:54:30;2.50;;;2.30;;
43311;SDS011;30041;48.300;16.352;2022-10-31T00:56:56;2.65;;;2.17;;
43311;SDS011;30041;48.300;16.352;2022-10-31T00:59:22;2.95;;;2.55;;
43311;SDS011;30041;48.300;16.352;2022-10-31T01:01:47;2.90;;;2.50;;
43311;SDS011;30041;48.300;16.352;2022-10-31T01:04:13;2.53;;;2.22;;
43311;SDS011;30041;48.300;16.352;2022-10-31T01:06:38;2.28;;;2.05;;
43311;SDS011;30041;48.300;16.352;2022-10-31T01:09:04;2.28;;;2.00;;
43311;SDS011;30041;48.300;16.352;2022-10-31T01:11:29;2.15;;;1.80;;
43311;SDS011;30041;48.300;16.352;2022-10-31T01:13:55;2.40;;;2.08;;
43311;SDS011;30041;48.300;16.352;2022-10-31T01:16:23;2.47;;;2.20;;
43311;SDS011;30041;48.300;16.352;2022-10-31T01:18:50;2.08;;;1.85;;
43311;SDS011;30041;48.300;16.352;2022-10-31T01:21:17;2.50;;;2.30;;
43311;SDS011;30041;48.300;16.352;2022-10-31T01:23:45;2.15;;;1.90;;
43311;SDS011;30041;48.300;16.352;2022-10-31T01:28:53;2.45;;;2.10;;
43311;SDS011;30041;48.300;16.352;2022-10-31T01:31:21;2.28;;;2.08;;
43311;SDS011;30041;48.300;16.352;2022-10-31T01:33:49;2.22;;;2.00;;
43311;SDS011;30041;48.300;16.352;2022-10-31T01:36:18;2.20;;;2.00;;
43311;SDS011;30041;48.300;16.352;2022-10-31T01:38:46;2.30;;;1.95;;
43311;SDS011;30041;48.300;16.352;2022-10-31T01:41:13;2.63;;;2.10;;
43311;SDS011;30041;48.300;16.352;2022-10-31T01:43:41;2.20;;;1.95;;
43311;SDS011;30041;48.300;16.352;2022-10-31T01:46:10;1.98;;;1.70;;
43311;SDS011;30041;48.300;16.352;2022-10-31T01:48:36;2.03;;;1.83;;
43311;SDS011;30041;48.300;16.352;2022-10-31T01:51:02;2.30;;;2.10;;
43311;SDS011;30041;48.300;16.352;2022-10-31T01:53:28;2.20;;;1.90;;
43311;SDS011;30041;48.300;16.352;2022-10-31T01:55:53;1.80;;;1.63;;
43311;SDS011;30041;48.300;16.352;2022-10-31T01:58:21;2.55;;;1.85;;
43311;SDS011;30041;48.300;16.352;2022-10-31T02:00:51;2.10;;;1.80;;
43311;SDS011;30041;48.300;16.352;2022-10-31T02:03:20;2.10;;;1.80;;
43311;SDS011;30041;48.300;16.352;2022-10-31T02:05:47;1.90;;;1.65;;
43311;SDS011;30041;48.300;16.352;2022-10-31T02:08:16;1.95;;;1.58;;
43311;SDS011;30041;48.300;16.352;2022-10-31T02:10:48;1.92;;;1.65;;
43311;SDS011;30041;48.300;16.352;2022-10-31T02:13:14;2.10;;;1.88;;
43311;SDS011;30041;48.300;16.352;2022-10-31T02:15:40;1.67;;;1.48;;
43311;SDS011;30041;48.300;16.352;2022-10-31T02:18:09;2.00;;;1.65;;
43311;SDS011;30041;48.300;16.352;2022-10-31T02:34:33;1.90;;;1.70;;
43311;SDS011;30041;48.300;16.352;2022-10-31T02:47:36;1.55;;;1.40;;
43311;SDS011;30041;48.300;16.352;2022-10-31T02:50:07;1.73;;;1.45;;
43311;SDS011;30041;48.300;16.352;2022-10-31T02:52:37;1.50;;;1.35;;
43311;SDS011;30041;48.300;16.352;2022-10-31T02:55:11;1.90;;;1.60;;
43311;SDS011;30041;48.300;16.352;2022-10-31T02:57:49;1.52;;;1.40;;
43311;SDS011;30041;48.300;16.352;2022-10-31T03:00:18;1.90;;;1.50;;
43311;SDS011;30041;48.300;16.352;2022-10-31T03:10:46;1.63;;;1.33;;
43311;SDS011;30041;48.300;16.352;2022-10-31T03:16:04;1.50;;;1.30;;
43311;SDS011;30041;48.300;16.352;2022-10-31T03:18:47;1.85;;;1.33;;
43311;SDS011;30041;48.300;16.352;2022-10-31T03:21:22;1.42;;;1.30;;
43311;SDS011;30041;48.300;16.352;2022-10-31T03:23:52;1.55;;;1.23;;
43311;SDS011;30041;48.300;16.352;2022-10-31T03:26:20;1.35;;;1.15;;
43311;SDS011;30041;48.300;16.352;2022-10-31T03:28:50;1.33;;;1.23;;
43311;SDS011;30041;48.300;16.352;2022-10-31T03:31:19;1.33;;;1.20;;
43311;SDS011;30041;48.300;16.352;2022-10-31T03:33:50;1.50;;;1.27;;
43311;SDS011;30041;48.300;16.352;2022-10-31T03:36:17;1.38;;;1.23;;
43311;SDS011;30041;48.300;16.352;2022-10-31T03:38:44;1.40;;;1.30;;
43311;SDS011;30041;48.300;16.352;2022-10-31T03:41:13;1.20;;;1.10;;
43311;SDS011;30041;48.300;16.352;2022-10-31T03:43:45;1.55;;;1.40;;
43311;SDS011;30041;48.300;16.352;2022-10-31T03:46:17;1.75;;;1.35;;
43311;SDS011;30041;48.300;16.352;2022-10-31T03:48:43;1.23;;;1.08;;
43311;SDS011;30041;48.300;16.352;2022-10-31T03:51:14;1.33;;;1.23;;
43311;SDS011;30041;48.300;16.352;2022-10-31T03:53:52;1.25;;;1.15;;
43311;SDS011;30041;48.300;16.352;2022-10-31T03:56:25;1.30;;;1.20;;
43311;SDS011;30041;48.300;16.352;2022-10-31T04:01:26;1.20;;;1.10;;
43311;SDS011;30041;48.300;16.352;2022-10-31T04:03:56;1.42;;;1.20;;
43311;SDS011;30041;48.300;16.352;2022-10-31T04:06:22;1.42;;;1.20;;
43311;SDS011;30041;48.300;16.352;2022-10-31T04:08:54;1.30;;;1.17;;
43311;SDS011;30041;48.300;16.352;2022-10-31T04:11:28;1.02;;;0.93;;
43311;SDS011;30041;48.300;16.352;2022-10-31T04:13:58;1.00;;;0.90;;
43311;SDS011;30041;48.300;16.352;2022-10-31T04:16:25;1.02;;;0.93;;
43311;SDS011;30041;48.300;16.352;2022-10-31T04:18:52;1.10;;;1.00;;
43311;SDS011;30041;48.300;16.352;2022-10-31T04:21:17;1.17;;;1.05;;
43311;SDS011;30041;48.300;16.352;2022-10-31T04:23:43;1.08;;;0.90;;
43311;SDS011;30041;48.300;16.352;2022-10-31T04:26:11;1.30;;;1.20;;
43311;SDS011;30041;48.300;16.352;2022-10-31T04:28:37;1.35;;;1.10;;
43311;SDS011;30041;48.300;16.352;2022-10-31T04:31:03;1.20;;;1.10;;
43311;SDS011;30041;48.300;16.352;2022-10-31T04:33:28;1.15;;;0.98;;
43311;SDS011;30041;48.300;16.352;2022-10-31T04:35:54;1.00;;;0.90;;
43311;SDS011;30041;48.300;16.352;2022-10-31T04:38:20;1.30;;;1.20;;
43311;SDS011;30041;48.300;16.352;2022-10-31T04:40:45;1.08;;;0.98;;
43311;SDS011;30041;48.300;16.352;2022-10-31T04:43:11;1.00;;;0.90;;
43311;SDS011;30041;48.300;16.352;2022-10-31T04:45:37;1.17;;;1.08;;
43311;SDS011;30041;48.300;16.352;2022-10-31T04:48:03;1.02;;;0.93;;
43311;SDS011;30041;48.300;16.352;2022-10-31T04:50:29;0.93;;;0.88;;
43311;SDS011;30041;48.300;16.352;2022-10-31T04:52:54;0.93;;;0.75;;
43311;SDS011;30041;48.300;16.352;2022-10-31T04:55:20;1.10;;;0.93;;
43311;SDS011;30041;48.300;16.352;2022-10-31T04:57:46;0.98;;;0.88;;
43311;SDS011;30041;48.300;16.352;2022-10-31T05:00:15;1.10;;;1.00;;
43311;SDS011;30041;48.300;16.352;2022-10-31T05:02:46;0.88;;;0.88;;
43311;SDS011;30041;48.300;16.352;2022-10-31T05:05:13;0.85;;;0.77;;
43311;SDS011;30041;48.300;16.352;2022-10-31T05:07:41;0.90;;;0.75;;
43311;SDS011;30041;48.300;16.352;2022-10-31T05:10:08;0.47;;;0.47;;
43311;SDS011;30041;48.300;16.352;2022-10-31T05:12:37;0.80;;;0.65;;
43311;SDS011;30041;48.300;16.352;2022-10-31T05:15:03;0.73;;;0.73;;
43311;SDS011;30041;48.300;16.352;2022-10-31T05:17:30;0.70;;;0.70;;
43311;SDS011;30041;48.300;16.352;2022-10-31T05:19:56;0.63;;;0.63;;
43311;SDS011;30041;48.300;16.352;2022-10-31T05:22:22;0.60;;;0.60;;
43311;SDS011;30041;48.300;16.352;2022-10-31T05:24:47;0.50;;;0.50;;
43311;SDS011;30041;48.300;16.352;2022-10-31T05:27:13;0.52;;;0.50;;
43311;SDS011;30041;48.300;16.352;2022-10-31T05:29:38;0.50;;;0.50;;
43311;SDS011;30041;48.300;16.352;2022-10-31T05:32:04;1.20;;;0.40;;
43311;SDS011;30041;48.300;16.352;2022-10-31T05:34:29;0.60;;;0.52;;
43311;SDS011;30041;48.300;16.352;2022-10-31T05:36:55;0.90;;;0.60;;
43311;SDS011;30041;48.300;16.352;2022-10-31T05:39:20;0.47;;;0.47;;
43311;SDS011;30041;48.300;16.352;2022-10-31T05:41:46;0.38;;;0.38;;
43311;SDS011;30041;48.300;16.352;2022-10-31T05:44:11;0.40;;;0.30;;
43311;SDS011;30041;48.300;16.352;2022-10-31T05:46:37;0.30;;;0.30;;
43311;SDS011;30041;48.300;16.352;2022-10-31T05:49:02;0.40;;;0.40;;
43311;SDS011;30041;48.300;16.352;2022-10-31T05:51:28;0.30;;;0.30;;
43311;SDS011;30041;48.300;16.352;2022-10-31T05:53:53;0.30;;;0.30;;
43311;SDS011;30041;48.300;16.352;2022-10-31T05:56:19;0.38;;;0.30;;
43311;SDS011;30041;48.300;16.352;2022-10-31T05:58:44;0.40;;;0.40;;
43311;SDS011;30041;48.300;16.352;2022-10-31T06:01:10;0.30;;;0.30;;
43311;SDS011;30041;48.300;16.352;2022-10-31T06:03:36;0.75;;;0.50;;
43311;SDS011;30041;48.300;16.352;2022-10-31T06:06:01;0.30;;;0.30;;
43311;SDS011;30041;48.300;16.352;2022-10-31T06:08:27;0.38;;;0.38;;
43311;SDS011;30041;48.300;16.352;2022-10-31T06:10:52;1.60;;;0.40;;
43311;SDS011;30041;48.300;16.352;2022-10-31T06:13:18;0.40;;;0.40;;
43311;SDS011;30041;48.300;16.352;2022-10-31T06:15:43;0.70;;;0.50;;
43311;SDS011;30041;48.300;16.352;2022-10-31T06:18:09;0.30;;;0.30;;
43311;SDS011;30041;48.300;16.352;2022-10-31T06:20:35;0.73;;;0.50;;
43311;SDS011;30041;48.300;16.352;2022-10-31T06:23:01;0.57;;;0.47;;
43311;SDS011;30041;48.300;16.352;2022-10-31T06:25:26;2.78;;;2.00;;
43311;SDS011;30041;48.300;16.352;2022-10-31T06:27:52;6.72;;;2.08;;
43311;SDS011;30041;48.300;16.352;2022-10-31T06:30:18;6.20;;;2.03;;
43311;SDS011;30041;48.300;16.352;2022-10-31T06:32:44;3.15;;;2.03;;
43311;SDS011;30041;48.300;16.352;2022-10-31T06:35:09;6.00;;;2.20;;
43311;SDS011;30041;48.300;16.352;2022-10-31T06:37:35;2.83;;;2.13;;
43311;SDS011;30041;48.300;16.352;2022-10-31T06:40:01;3.30;;;2.00;;
43311;SDS011;30041;48.300;16.352;2022-10-31T06:42:26;2.63;;;2.20;;
43311;SDS011;30041;48.300;16.352;2022-10-31T06:44:51;2.38;;;2.00;;
43311;SDS011;30041;48.300;16.352;2022-10-31T06:47:17;3.05;;;2.08;;
43311;SDS011;30041;48.300;16.352;2022-10-31T06:49:42;2.83;;;2.33;;
43311;SDS011;30041;48.300;16.352;2022-10-31T06:52:08;4.53;;;2.20;;
43311;SDS011;30041;48.300;16.352;2022-10-31T06:54:34;1.88;;;1.67;;
43311;SDS011;30041;48.300;16.352;2022-10-31T06:56:59;2.08;;;1.60;;
43311;SDS011;30041;48.300;16.352;2022-10-31T06:59:25;2.92;;;1.63;;
43311;SDS011;30041;48.300;16.352;2022-10-31T07:01:50;4.00;;;1.50;;
43311;SDS011;30041;48.300;16.352;2022-10-31T07:04:16;4.63;;;1.50;;
43311;SDS011;30041;48.300;16.352;2022-10-31T07:06:41;3.95;;;1.70;;
43311;SDS011;30041;48.300;16.352;2022-10-31T07:09:07;3.53;;;1.67;;
43311;SDS011;30041;48.300;16.352;2022-10-31T07:11:32;3.53;;;1.60;;
43311;SDS011;30041;48.300;16.352;2022-10-31T07:13:58;5.07;;;1.58;;
43311;SDS011;30041;48.300;16.352;2022-10-31T07:16:24;5.43;;;1.60;;
43311;SDS011;30041;48.300;16.352;2022-10-31T07:18:49;6.50;;;1.50;;
43311;SDS011;30041;48.300;16.352;2022-10-31T07:21:15;3.03;;;1.48;;
43311;SDS011;30041;48.300;16.352;2022-10-31T07:23:41;2.22;;;1.35;;
43311;SDS011;30041;48.300;16.352;2022-10-31T07:26:07;1.73;;;1.30;;
43311;SDS011;30041;48.300;16.352;2022-10-31T07:28:34;9.23;;;1.70;;
43311;SDS011;30041;48.300;16.352;2022-10-31T07:31:00;9.65;;;1.77;;
43311;SDS011;30041;48.300;16.352;2022-10-31T07:33:25;2.80;;;1.60;;
43311;SDS011;30041;48.300;16.352;2022-10-31T07:35:51;5.72;;;1.40;;
43311;SDS011;30041;48.300;16.352;2022-10-31T07:38:17;5.93;;;1.60;;
43311;SDS011;30041;48.300;16.352;2022-10-31T07:40:42;3.80;;;1.60;;
43311;SDS011;30041;48.300;16.352;2022-10-31T07:43:10;7.10;;;1.52;;
43311;SDS011;30041;48.300;16.352;2022-10-31T07:45:36;3.90;;;1.77;;
43311;SDS011;30041;48.300;16.352;2022-10-31T07:48:01;6.97;;;1.92;;
43311;SDS011;30041;48.300;16.352;2022-10-31T07:50:31;4.45;;;1.70;;
43311;SDS011;30041;48.300;16.352;2022-10-31T07:53:01;3.88;;;1.55;;
43311;SDS011;30041;48.300;16.352;2022-10-31T07:55:29;3.70;;;1.70;;
43311;SDS011;30041;48.300;16.352;2022-10-31T07:58:04;4.93;;;1.88;;
43311;SDS011;30041;48.300;16.352;2022-10-31T08:00:32;2.53;;;1.60;;
43311;SDS011;30041;48.300;16.352;2022-10-31T08:03:08;5.60;;;1.50;;
43311;SDS011;30041;48.300;16.352;2022-10-31T08:05:35;4.00;;;1.73;;
43311;SDS011;30041;48.300;16.352;2022-10-31T08:08:02;3.40;;;1.65;;
43311;SDS011;30041;48.300;16.352;2022-10-31T08:10:28;6.45;;;1.50;;
43311;SDS011;30041;48.300;16.352;2022-10-31T08:12:57;2.80;;;1.58;;
43311;SDS011;30041;48.300;16.352;2022-10-31T08:15:26;2.72;;;1.60;;
43311;SDS011;30041;48.300;16.352;2022-10-31T08:17:52;2.65;;;1.30;;
43311;SDS011;30041;48.300;16.352;2022-10-31T08:20:18;4.00;;;1.63;;
43311;SDS011;30041;48.300;16.352;2022-10-31T08:22:56;5.20;;;1.80;;
43311;SDS011;30041;48.300;16.352;2022-10-31T08:25:23;4.95;;;1.52;;
43311;SDS011;30041;48.300;16.352;2022-10-31T08:27:55;2.80;;;1.65;;
43311;SDS011;30041;48.300;16.352;2022-10-31T08:30:22;5.78;;;1.38;;
43311;SDS011;30041;48.300;16.352;2022-10-31T08:33:05;6.03;;;1.80;;
43311;SDS011;30041;48.300;16.352;2022-10-31T08:35:33;3.45;;;1.65;;
43311;SDS011;30041;48.300;16.352;2022-10-31T08:37:59;3.30;;;1.52;;
43311;SDS011;30041;48.300;16.352;2022-10-31T08:40:25;2.85;;;1.50;;
43311;SDS011;30041;48.300;16.352;2022-10-31T08:42:59;1.90;;;1.35;;
43311;SDS011;30041;48.300;16.352;2022-10-31T08:45:27;4.85;;;1.48;;
43311;SDS011;30041;48.300;16.352;2022-10-31T08:48:01;6.85;;;2.05;;
43311;SDS011;30041;48.300;16.352;2022-10-31T08:50:32;3.30;;;1.60;;
43311;SDS011;30041;48.300;16.352;2022-10-31T08:53:03;3.88;;;1.70;;
43311;SDS011;30041;48.300;16.352;2022-10-31T08:55:29;5.28;;;1.67;;
43311;SDS011;30041;48.300;16.352;2022-10-31T08:57:56;3.20;;;1.50;;
43311;SDS011;30041;48.300;16.352;2022-10-31T09:00:22;2.28;;;1.45;;
43311;SDS011;30041;48.300;16.352;2022-10-31T09:02:54;3.88;;;1.40;;
43311;SDS011;30041;48.300;16.352;2022-10-31T09:05:22;3.33;;;1.60;;
43311;SDS011;30041;48.300;16.352;2022-10-31T09:07:48;2.85;;;1.45;;
43311;SDS011;30041;48.300;16.352;2022-10-31T09:10:13;2.63;;;1.60;;
43311;SDS011;30041;48.300;16.352;2022-10-31T09:12:39;1.58;;;1.27;;
43311;SDS011;30041;48.300;16.352;2022-10-31T09:15:05;3.95;;;1.50;;
43311;SDS011;30041;48.300;16.352;2022-10-31T09:17:30;1.70;;;1.15;;
43311;SDS011;30041;48.300;16.352;2022-10-31T09:19:56;2.33;;;1.40;;
43311;SDS011;30041;48.300;16.352;2022-10-31T09:22:21;1.85;;;1.25;;
43311;SDS011;30041;48.300;16.352;2022-10-31T09:24:47;4.13;;;1.45;;
43311;SDS011;30041;48.300;16.352;2022-10-31T09:27:12;2.38;;;1.30;;
43311;SDS011;30041;48.300;16.352;2022-10-31T09:29:38;2.67;;;1.20;;
43311;SDS011;30041;48.300;16.352;2022-10-31T09:32:04;2.17;;;1.30;;
43311;SDS011;30041;48.300;16.352;2022-10-31T09:34:30;2.05;;;1.27;;
43311;SDS011;30041;48.300;16.352;2022-10-31T09:36:55;2.78;;;1.30;;
43311;SDS011;30041;48.300;16.352;2022-10-31T09:39:21;4.53;;;1.27;;
43311;SDS011;30041;48.300;16.352;2022-10-31T09:44:50;2.42;;;1.05;;
43311;SDS011;30041;48.300;16.352;2022-10-31T09:47:37;3.78;;;1.23;;
43311;SDS011;30041;48.300;16.352;2022-10-31T09:50:22;2.67;;;1.30;;
43311;SDS011;30041;48.300;16.352;2022-10-31T09:55:36;1.65;;;1.17;;
43311;SDS011;30041;48.300;16.352;2022-10-31T09:58:05;1.23;;;0.90;;
43311;SDS011;30041;48.300;16.352;2022-10-31T10:00:33;4.00;;;1.25;;
43311;SDS011;30041;48.300;16.352;2022-10-31T10:03:02;1.92;;;1.10;;
43311;SDS011;30041;48.300;16.352;2022-10-31T10:05:32;1.80;;;1.10;;
43311;SDS011;30041;48.300;16.352;2022-10-31T10:08:14;2.03;;;1.20;;
43311;SDS011;30041;48.300;16.352;2022-10-31T10:10:57;2.58;;;1.02;;
43311;SDS011;30041;48.300;16.352;2022-10-31T10:18:55;1.65;;;1.20;;
43311;SDS011;30041;48.300;16.352;2022-10-31T10:30:11;1.83;;;1.10;;
43311;SDS011;30041;48.300;16.352;2022-10-31T10:38:09;1.77;;;1.15;;
43311;SDS011;30041;48.300;16.352;2022-10-31T10:40:36;2.05;;;1.00;;
43311;SDS011;30041;48.300;16.352;2022-10-31T10:48:48;1.30;;;0.90;;
43311;SDS011;30041;48.300;16.352;2022-10-31T10:51:25;1.17;;;0.90;;
43311;SDS011;30041;48.300;16.352;2022-10-31T10:54:02;1.17;;;0.90;;
43311;SDS011;30041;48.300;16.352;2022-10-31T11:01:56;2.10;;;1.10;;
43311;SDS011;30041;48.300;16.352;2022-10-31T11:04:34;1.20;;;0.90;;
43311;SDS011;30041;48.300;16.352;2022-10-31T11:07:06;1.00;;;0.88;;
43311;SDS011;30041;48.300;16.352;2022-10-31T11:09:33;1.23;;;0.95;;
43311;SDS011;30041;48.300;16.352;2022-10-31T11:12:00;1.50;;;0.95;;
43311;SDS011;30041;48.300;16.352;2022-10-31T11:15:06;1.67;;;1.10;;
43311;SDS011;30041;48.300;16.352;2022-10-31T11:17:46;1.08;;;0.80;;
43311;SDS011;30041;48.300;16.352;2022-10-31T11:22:45;1.67;;;1.00;;
43311;SDS011;30041;48.300;16.352;2022-10-31T11:25:25;1.33;;;0.98;;
43311;SDS011;30041;48.300;16.352;2022-10-31T11:28:01;1.90;;;1.00;;
43311;SDS011;30041;48.300;16.352;2022-10-31T11:30:28;1.88;;;1.30;;
43311;SDS011;30041;48.300;16.352;2022-10-31T11:32:55;1.13;;;1.00;;
43311;SDS011;30041;48.300;16.352;2022-10-31T11:35:22;1.52;;;0.93;;
43311;SDS011;30041;48.300;16.352;2022-10-31T11:37:50;1.88;;;0.85;;
43311;SDS011;30041;48.300;16.352;2022-10-31T11:40:19;1.70;;;1.10;;
43311;SDS011;30041;48.300;16.352;2022-10-31T11:42:47;1.20;;;0.93;;
43311;SDS011;30041;48.300;16.352;2022-10-31T11:45:15;1.88;;;1.00;;
43311;SDS011;30041;48.300;16.352;2022-10-31T11:47:47;1.50;;;1.00;;
43311;SDS011;30041;48.300;16.352;2022-10-31T11:50:18;2.47;;;1.13;;
43311;SDS011;30041;48.300;16.352;2022-10-31T11:53:14;1.20;;;0.85;;
43311;SDS011;30041;48.300;16.352;2022-10-31T11:55:42;2.00;;;1.10;;
43311;SDS011;30041;48.300;16.352;2022-10-31T11:58:22;1.52;;;1.00;;
43311;SDS011;30041;48.300;16.352;2022-10-31T12:00:51;1.45;;;1.10;;
43311;SDS011;30041;48.300;16.352;2022-10-31T12:09:11;2.00;;;1.25;;
43311;SDS011;30041;48.300;16.352;2022-10-31T12:30:58;1.58;;;1.00;;
43311;SDS011;30041;48.300;16.352;2022-10-31T12:33:54;2.03;;;1.50;;
43311;SDS011;30041;48.300;16.352;2022-10-31T12:36:43;1.48;;;1.13;;
43311;SDS011;30041;48.300;16.352;2022-10-31T12:39:23;1.52;;;1.10;;
43311;SDS011;30041;48.300;16.352;2022-10-31T12:42:02;2.10;;;1.15;;
43311;SDS011;30041;48.300;16.352;2022-10-31T12:49:56;1.70;;;1.20;;
43311;SDS011;30041;48.300;16.352;2022-10-31T12:52:44;1.38;;;1.00;;
43311;SDS011;30041;48.300;16.352;2022-10-31T12:55:40;2.10;;;1.38;;
43311;SDS011;30041;48.300;16.352;2022-10-31T12:58:21;1.88;;;1.30;;
43311;SDS011;30041;48.300;16.352;2022-10-31T13:00:58;2.17;;;1.20;;
43311;SDS011;30041;48.300;16.352;2022-10-31T13:06:33;2.05;;;1.20;;
43311;SDS011;30041;48.300;16.352;2022-10-31T13:09:07;1.75;;;1.20;;
43311;SDS011;30041;48.300;16.352;2022-10-31T13:11:38;1.83;;;1.15;;
43311;SDS011;30041;48.300;16.352;2022-10-31T13:14:11;1.92;;;1.30;;
43311;SDS011;30041;48.300;16.352;2022-10-31T13:16:57;2.53;;;1.60;;
43311;SDS011;30041;48.300;16.352;2022-10-31T13:19:27;1.70;;;1.20;;
43311;SDS011;30041;48.300;16.352;2022-10-31T13:22:08;1.80;;;1.20;;
43311;SDS011;30041;48.300;16.352;2022-10-31T13:27:46;4.25;;;1.58;;
43311;SDS011;30041;48.300;16.352;2022-10-31T13:30:18;2.67;;;1.70;;
43311;SDS011;30041;48.300;16.352;2022-10-31T13:36:04;2.30;;;1.43;;
43311;SDS011;30041;48.300;16.352;2022-10-31T13:44:24;2.40;;;1.42;;
43311;SDS011;30041;48.300;16.352;2022-10-31T13:46:55;4.07;;;1.30;;
43311;SDS011;30041;48.300;16.352;2022-10-31T13:49:35;3.78;;;1.60;;
43311;SDS011;30041;48.300;16.352;2022-10-31T13:52:12;2.78;;;1.40;;
43311;SDS011;30041;48.300;16.352;2022-10-31T13:54:41;2.47;;;1.40;;
43311;SDS011;30041;48.300;16.352;2022-10-31T13:57:18;2.97;;;1.58;;
43311;SDS011;30041;48.300;16.352;2022-10-31T14:00:22;2.70;;;1.27;;
43311;SDS011;30041;48.300;16.352;2022-10-31T14:02:51;2.50;;;1.77;;
43311;SDS011;30041;48.300;16.352;2022-10-31T14:05:22;3.10;;;1.73;;
43311;SDS011;30041;48.300;16.352;2022-10-31T14:07:52;3.40;;;1.70;;
43311;SDS011;30041;48.300;16.352;2022-10-31T14:10:20;5.18;;;1.92;;
43311;SDS011;30041;48.300;16.352;2022-10-31T14:12:46;4.63;;;2.80;;
43311;SDS011;30041;48.300;16.352;2022-10-31T14:17:59;4.55;;;2.25;;
43311;SDS011;30041;48.300;16.352;2022-10-31T14:20:43;6.35;;;3.85;;
43311;SDS011;30041;48.300;16.352;2022-10-31T14:28:49;5.07;;;2.90;;
43311;SDS011;30041;48.300;16.352;2022-10-31T14:34:20;4.82;;;3.08;;
43311;SDS011;30041;48.300;16.352;2022-10-31T14:51:15;9.80;;;4.20;;
43311;SDS011;30041;48.300;16.352;2022-10-31T14:56:18;6.22;;;5.00;;
43311;SDS011;30041;48.300;16.352;2022-10-31T15:01:21;9.40;;;4.85;;
43311;SDS011;30041;48.300;16.352;2022-10-31T15:03:53;8.07;;;5.30;;
43311;SDS011;30041;48.300;16.352;2022-10-31T15:06:30;8.52;;;5.00;;
43311;SDS011;30041;48.300;16.352;2022-10-31T15:09:04;7.07;;;4.90;;
43311;SDS011;30041;48.300;16.352;2022-10-31T15:11:35;16.65;;;6.10;;
43311;SDS011;30041;48.300;16.352;2022-10-31T15:14:16;10.90;;;5.50;;
43311;SDS011;30041;48.300;16.352;2022-10-31T15:16:46;12.10;;;6.28;;
43311;SDS011;30041;48.300;16.352;2022-10-31T15:19:20;12.38;;;6.38;;
43311;SDS011;30041;48.300;16.352;2022-10-31T15:21:50;8.05;;;5.93;;
43311;SDS011;30041;48.300;16.352;2022-10-31T15:24:19;10.60;;;5.45;;
43311;SDS011;30041;48.300;16.352;2022-10-31T15:26:49;13.15;;;9.30;;
43311;SDS011;30041;48.300;16.352;2022-10-31T15:29:17;14.32;;;8.15;;
43311;SDS011;30041;48.300;16.352;2022-10-31T15:31:55;12.93;;;7.60;;
43311;SDS011;30041;48.300;16.352;2022-10-31T15:34:33;14.13;;;7.80;;
43311;SDS011;30041;48.300;16.352;2022-10-31T15:37:04;12.70;;;7.20;;
43311;SDS011;30041;48.300;16.352;2022-10-31T15:39:35;11.43;;;7.10;;
43311;SDS011;30041;48.300;16.352;2022-10-31T15:42:01;23.08;;;16.88;;
43311;SDS011;30041;48.300;16.352;2022-10-31T15:46:57;28.67;;;18.45;;
43311;SDS011;30041;48.300;16.352;2022-10-31T15:51:56;19.55;;;13.32;;
43311;SDS011;30041;48.300;16.352;2022-10-31T15:54:22;17.42;;;13.13;;
43311;SDS011;30041;48.300;16.352;2022-10-31T15:56:48;18.67;;;12.75;;
43311;SDS011;30041;48.300;16.352;2022-10-31T15:59:19;18.88;;;14.52;;
43311;SDS011;30041;48.300;16.352;2022-10-31T16:01:55;20.25;;;14.40;;
43311;SDS011;30041;48.300;16.352;2022-10-31T16:04:24;19.08;;;13.00;;
43311;SDS011;30041;48.300;16.352;2022-10-31T16:07:00;18.30;;;12.30;;
43311;SDS011;30041;48.300;16.352;2022-10-31T16:09:48;16.42;;;12.50;;
43311;SDS011;30041;48.300;16.352;2022-10-31T16:12:15;16.10;;;11.40;;
43311;SDS011;30041;48.300;16.352;2022-10-31T16:14:41;16.98;;;11.80;;
43311;SDS011;30041;48.300;16.352;2022-10-31T16:17:10;18.75;;;11.63;;
43311;SDS011;30041;48.300;16.352;2022-10-31T16:22:22;16.60;;;11.55;;
43311;SDS011;30041;48.300;16.352;2022-10-31T16:25:13;13.20;;;10.47;;
43311;SDS011;30041;48.300;16.352;2022-10-31T16:27:51;15.43;;;10.53;;
43311;SDS011;30041;48.300;16.352;2022-10-31T16:30:29;13.25;;;10.40;;
43311;SDS011;30041;48.300;16.352;2022-10-31T16:33:01;15.38;;;10.55;;
43311;SDS011;30041;48.300;16.352;2022-10-31T16:35:28;11.85;;;9.38;;
43311;SDS011;30041;48.300;16.352;2022-10-31T16:37:58;17.33;;;10.93;;
43311;SDS011;30041;48.300;16.352;2022-10-31T16:40:24;17.88;;;10.35;;
43311;SDS011;30041;48.300;16.352;2022-10-31T16:42:50;16.02;;;10.20;;
43311;SDS011;30041;48.300;16.352;2022-10-31T16:47:43;14.23;;;9.55;;
43311;SDS011;30041;48.300;16.352;2022-10-31T16:50:29;13.82;;;9.20;;
43311;SDS011;30041;48.300;16.352;2022-10-31T16:52:54;12.00;;;10.23;;
43311;SDS011;30041;48.300;16.352;2022-10-31T16:55:20;10.60;;;9.10;;
43311;SDS011;30041;48.300;16.352;2022-10-31T16:57:47;9.70;;;7.68;;
43311;SDS011;30041;48.300;16.352;2022-10-31T17:00:18;10.02;;;7.60;;
43311;SDS011;30041;48.300;16.352;2022-10-31T17:02:46;10.32;;;7.65;;
43311;SDS011;30041;48.300;16.352;2022-10-31T17:05:15;14.93;;;8.00;;
43311;SDS011;30041;48.300;16.352;2022-10-31T17:07:42;12.82;;;8.00;;
43311;SDS011;30041;48.300;16.352;2022-10-31T17:10:08;13.13;;;7.13;;
43311;SDS011;30041;48.300;16.352;2022-10-31T17:12:34;8.77;;;7.25;;
43311;SDS011;30041;48.300;16.352;2022-10-31T17:15:01;10.30;;;7.18;;
43311;SDS011;30041;48.300;16.352;2022-10-31T17:17:27;9.68;;;7.40;;
43311;SDS011;30041;48.300;16.352;2022-10-31T17:19:53;10.55;;;7.75;;
43311;SDS011;30041;48.300;16.352;2022-10-31T17:22:18;10.85;;;7.95;;
43311;SDS011;30041;48.300;16.352;2022-10-31T17:24:44;10.68;;;6.90;;
43311;SDS011;30041;48.300;16.352;2022-10-31T17:27:09;16.58;;;8.07;;
43311;SDS011;30041;48.300;16.352;2022-10-31T17:29:35;10.40;;;7.28;;